sensor_id;sensor_type;location;lat;lon;timestamp;P1;durP1;ratioP1;P2;durP2;ratioP2
16820;SDS011;8527;49.740;6.604;2023-06-14T00:03:32;12.80;;;6.95;;
16820;SDS011;8527;49.740;6.604;2023-06-14T00:08:38;10.75;;;6.55;;
16820;SDS011;8527;49.740;6.604;2023-06-14T00:13:38;11.13;;;7.03;;
16820;SDS011;8527;49.740;6.604;2023-06-14T00:18:51;11.80;;;7.38;;
16820;SDS011;8527;49.740;6.604;2023-06-14T00:23:58;13.65;;;7.50;;
16820;SDS011;8527;49.740;6.604;2023-06-14T00:29:01;13.05;;;7.30;;
16820;SDS011;8527;49.740;6.604;2023-06-14T00:34:03;15.73;;;7.78;;
16820;SDS011;8527;49.740;6.604;2023-06-14T00:39:12;14.20;;;8.27;;
16820;SDS011;8527;49.740;6.604;2023-06-14T00:44:13;15.45;;;7.90;;
16820;SDS011;8527;49.740;6.604;2023-06-14T00:49:17;11.65;;;7.82;;
16820;SDS011;8527;49.740;6.604;2023-06-14T00:54:20;16.48;;;7.45;;
16820;SDS011;8527;49.740;6.604;2023-06-14T00:59:20;13.98;;;7.70;;
16820;SDS011;8527;49.740;6.604;2023-06-14T01:04:21;11.88;;;7.47;;
16820;SDS011;8527;49.740;6.604;2023-06-14T01:09:26;12.27;;;7.50;;
16820;SDS011;8527;49.740;6.604;2023-06-14T01:14:36;12.73;;;7.35;;
16820;SDS011;8527;49.740;6.604;2023-06-14T01:19:37;13.45;;;7.28;;
16820;SDS011;8527;49.740;6.604;2023-06-14T01:24:46;11.60;;;7.43;;
16820;SDS011;8527;49.740;6.604;2023-06-14T01:34:57;14.27;;;7.70;;
16820;SDS011;8527;49.740;6.604;2023-06-14T01:40:01;11.20;;;7.22;;
16820;SDS011;8527;49.740;6.604;2023-06-14T01:45:14;13.30;;;7.68;;
16820;SDS011;8527;49.740;6.604;2023-06-14T01:50:14;12.38;;;8.10;;
16820;SDS011;8527;49.740;6.604;2023-06-14T01:55:16;12.10;;;7.03;;
16820;SDS011;8527;49.740;6.604;2023-06-14T02:00:17;11.75;;;7.03;;
16820;SDS011;8527;49.740;6.604;2023-06-14T02:05:16;11.98;;;7.25;;
16820;SDS011;8527;49.740;6.604;2023-06-14T02:10:19;16.45;;;7.55;;
16820;SDS011;8527;49.740;6.604;2023-06-14T02:15:27;11.98;;;7.22;;
16820;SDS011;8527;49.740;6.604;2023-06-14T02:20:31;12.32;;;7.07;;
16820;SDS011;8527;49.740;6.604;2023-06-14T02:25:33;14.65;;;7.65;;
16820;SDS011;8527;49.740;6.604;2023-06-14T02:30:46;12.82;;;6.97;;
16820;SDS011;8527;49.740;6.604;2023-06-14T02:35:45;13.25;;;7.40;;
16820;SDS011;8527;49.740;6.604;2023-06-14T02:40:46;10.40;;;6.97;;
16820;SDS011;8527;49.740;6.604;2023-06-14T02:45:45;12.07;;;6.68;;
16820;SDS011;8527;49.740;6.604;2023-06-14T02:50:51;11.75;;;7.78;;
16820;SDS011;8527;49.740;6.604;2023-06-14T02:55:57;12.73;;;7.93;;
16820;SDS011;8527;49.740;6.604;2023-06-14T03:00:56;13.15;;;7.85;;
16820;SDS011;8527;49.740;6.604;2023-06-14T03:05:58;16.25;;;8.13;;
16820;SDS011;8527;49.740;6.604;2023-06-14T03:11:04;14.63;;;8.05;;
16820;SDS011;8527;49.740;6.604;2023-06-14T03:16:06;12.70;;;7.72;;
16820;SDS011;8527;49.740;6.604;2023-06-14T03:21:22;12.85;;;7.53;;
16820;SDS011;8527;49.740;6.604;2023-06-14T03:26:33;12.93;;;8.20;;
16820;SDS011;8527;49.740;6.604;2023-06-14T03:31:55;16.77;;;7.75;;
16820;SDS011;8527;49.740;6.604;2023-06-14T03:37:00;11.85;;;7.82;;
16820;SDS011;8527;49.740;6.604;2023-06-14T03:42:08;13.20;;;7.93;;
16820;SDS011;8527;49.740;6.604;2023-06-14T03:47:09;12.55;;;7.35;;
16820;SDS011;8527;49.740;6.604;2023-06-14T03:52:08;13.20;;;8.15;;
16820;SDS011;8527;49.740;6.604;2023-06-14T03:57:09;14.32;;;8.30;;
16820;SDS011;8527;49.740;6.604;2023-06-14T04:02:08;15.52;;;7.57;;
16820;SDS011;8527;49.740;6.604;2023-06-14T04:07:11;13.43;;;8.05;;
16820;SDS011;8527;49.740;6.604;2023-06-14T04:12:15;14.70;;;8.20;;
16820;SDS011;8527;49.740;6.604;2023-06-14T04:17:20;13.38;;;8.40;;
16820;SDS011;8527;49.740;6.604;2023-06-14T04:22:19;14.82;;;8.13;;
16820;SDS011;8527;49.740;6.604;2023-06-14T04:27:22;15.05;;;8.95;;
16820;SDS011;8527;49.740;6.604;2023-06-14T04:32:22;18.73;;;9.20;;
16820;SDS011;8527;49.740;6.604;2023-06-14T04:37:22;17.50;;;9.38;;
16820;SDS011;8527;49.740;6.604;2023-06-14T04:42:28;20.60;;;9.13;;
16820;SDS011;8527;49.740;6.604;2023-06-14T04:47:27;14.73;;;8.30;;
16820;SDS011;8527;49.740;6.604;2023-06-14T04:52:27;12.35;;;8.27;;
16820;SDS011;8527;49.740;6.604;2023-06-14T04:57:29;15.52;;;8.82;;
16820;SDS011;8527;49.740;6.604;2023-06-14T05:02:28;22.90;;;9.88;;
16820;SDS011;8527;49.740;6.604;2023-06-14T05:07:27;19.00;;;8.93;;
16820;SDS011;8527;49.740;6.604;2023-06-14T05:12:28;19.55;;;9.80;;
16820;SDS011;8527;49.740;6.604;2023-06-14T05:17:29;19.27;;;9.05;;
16820;SDS011;8527;49.740;6.604;2023-06-14T05:22:28;16.02;;;9.13;;
16820;SDS011;8527;49.740;6.604;2023-06-14T05:27:26;18.25;;;9.32;;
16820;SDS011;8527;49.740;6.604;2023-06-14T05:32:27;21.08;;;8.75;;
16820;SDS011;8527;49.740;6.604;2023-06-14T05:37:31;23.55;;;9.27;;
16820;SDS011;8527;49.740;6.604;2023-06-14T05:42:47;23.58;;;9.32;;
16820;SDS011;8527;49.740;6.604;2023-06-14T05:47:49;16.45;;;9.00;;
16820;SDS011;8527;49.740;6.604;2023-06-14T05:52:49;16.63;;;8.48;;
16820;SDS011;8527;49.740;6.604;2023-06-14T05:57:47;18.38;;;9.15;;
16820;SDS011;8527;49.740;6.604;2023-06-14T06:02:49;18.75;;;9.45;;
16820;SDS011;8527;49.740;6.604;2023-06-14T06:07:47;14.60;;;9.05;;
16820;SDS011;8527;49.740;6.604;2023-06-14T06:12:46;16.63;;;9.27;;
16820;SDS011;8527;49.740;6.604;2023-06-14T06:17:50;16.65;;;8.60;;
16820;SDS011;8527;49.740;6.604;2023-06-14T06:22:56;16.77;;;8.98;;
16820;SDS011;8527;49.740;6.604;2023-06-14T06:27:55;19.23;;;8.85;;
16820;SDS011;8527;49.740;6.604;2023-06-14T06:32:56;22.60;;;8.98;;
16820;SDS011;8527;49.740;6.604;2023-06-14T06:37:58;14.95;;;8.68;;
16820;SDS011;8527;49.740;6.604;2023-06-14T06:42:57;22.00;;;8.35;;
16820;SDS011;8527;49.740;6.604;2023-06-14T06:47:58;18.83;;;8.43;;
16820;SDS011;8527;49.740;6.604;2023-06-14T06:52:56;18.48;;;8.10;;
16820;SDS011;8527;49.740;6.604;2023-06-14T06:57:55;12.13;;;7.30;;
16820;SDS011;8527;49.740;6.604;2023-06-14T07:02:55;23.58;;;8.68;;
16820;SDS011;8527;49.740;6.604;2023-06-14T07:07:56;21.33;;;9.02;;
16820;SDS011;8527;49.740;6.604;2023-06-14T07:12:55;14.43;;;8.07;;
16820;SDS011;8527;49.740;6.604;2023-06-14T07:17:59;16.70;;;8.45;;
16820;SDS011;8527;49.740;6.604;2023-06-14T07:23:02;15.27;;;8.45;;
16820;SDS011;8527;49.740;6.604;2023-06-14T07:28:03;22.50;;;8.70;;
16820;SDS011;8527;49.740;6.604;2023-06-14T07:33:05;14.73;;;8.18;;
16820;SDS011;8527;49.740;6.604;2023-06-14T07:38:07;21.02;;;8.18;;
16820;SDS011;8527;49.740;6.604;2023-06-14T07:43:10;27.58;;;8.68;;
16820;SDS011;8527;49.740;6.604;2023-06-14T07:48:11;15.00;;;8.57;;
16820;SDS011;8527;49.740;6.604;2023-06-14T07:53:09;19.02;;;8.77;;
16820;SDS011;8527;49.740;6.604;2023-06-14T07:58:08;18.75;;;8.60;;
16820;SDS011;8527;49.740;6.604;2023-06-14T08:03:14;18.52;;;8.63;;
16820;SDS011;8527;49.740;6.604;2023-06-14T08:08:17;16.33;;;8.13;;
16820;SDS011;8527;49.740;6.604;2023-06-14T08:13:22;22.38;;;8.27;;
16820;SDS011;8527;49.740;6.604;2023-06-14T08:18:24;33.60;;;9.65;;
16820;SDS011;8527;49.740;6.604;2023-06-14T08:23:32;16.30;;;9.00;;
16820;SDS011;8527;49.740;6.604;2023-06-14T08:28:41;21.17;;;8.93;;
16820;SDS011;8527;49.740;6.604;2023-06-14T08:33:48;18.42;;;8.20;;
16820;SDS011;8527;49.740;6.604;2023-06-14T08:38:54;19.45;;;8.80;;
16820;SDS011;8527;49.740;6.604;2023-06-14T08:43:58;19.98;;;8.75;;
16820;SDS011;8527;49.740;6.604;2023-06-14T08:48:59;15.00;;;8.23;;
16820;SDS011;8527;49.740;6.604;2023-06-14T08:54:02;21.23;;;8.20;;
16820;SDS011;8527;49.740;6.604;2023-06-14T08:59:03;19.35;;;8.40;;
16820;SDS011;8527;49.740;6.604;2023-06-14T09:04:06;18.98;;;7.95;;
16820;SDS011;8527;49.740;6.604;2023-06-14T09:09:05;16.27;;;8.88;;
16820;SDS011;8527;49.740;6.604;2023-06-14T09:14:06;21.25;;;8.25;;
16820;SDS011;8527;49.740;6.604;2023-06-14T09:19:09;15.50;;;7.90;;
16820;SDS011;8527;49.740;6.604;2023-06-14T09:24:19;16.13;;;8.63;;
16820;SDS011;8527;49.740;6.604;2023-06-14T09:29:18;22.13;;;8.32;;
16820;SDS011;8527;49.740;6.604;2023-06-14T09:34:19;13.35;;;8.30;;
16820;SDS011;8527;49.740;6.604;2023-06-14T09:44:22;14.43;;;7.65;;
16820;SDS011;8527;49.740;6.604;2023-06-14T09:49:28;23.42;;;8.68;;
16820;SDS011;8527;49.740;6.604;2023-06-14T09:54:27;19.45;;;8.00;;
16820;SDS011;8527;49.740;6.604;2023-06-14T09:59:30;14.93;;;8.07;;
16820;SDS011;8527;49.740;6.604;2023-06-14T10:04:33;18.08;;;7.68;;
16820;SDS011;8527;49.740;6.604;2023-06-14T10:09:32;13.43;;;7.57;;
16820;SDS011;8527;49.740;6.604;2023-06-14T10:14:34;94.30;;;12.65;;
16820;SDS011;8527;49.740;6.604;2023-06-14T10:19:40;16.15;;;7.25;;
16820;SDS011;8527;49.740;6.604;2023-06-14T10:24:43;14.50;;;7.35;;
16820;SDS011;8527;49.740;6.604;2023-06-14T10:35:06;20.30;;;7.18;;
16820;SDS011;8527;49.740;6.604;2023-06-14T10:40:06;16.13;;;7.07;;
16820;SDS011;8527;49.740;6.604;2023-06-14T10:45:09;13.25;;;6.63;;
16820;SDS011;8527;49.740;6.604;2023-06-14T10:50:27;13.43;;;6.78;;
16820;SDS011;8527;49.740;6.604;2023-06-14T10:55:28;11.38;;;6.63;;
16820;SDS011;8527;49.740;6.604;2023-06-14T11:00:35;10.63;;;6.70;;
16820;SDS011;8527;49.740;6.604;2023-06-14T11:05:44;12.80;;;6.05;;
16820;SDS011;8527;49.740;6.604;2023-06-14T11:10:50;10.15;;;6.05;;
16820;SDS011;8527;49.740;6.604;2023-06-14T11:16:01;11.90;;;6.82;;
16820;SDS011;8527;49.740;6.604;2023-06-14T11:21:05;15.23;;;6.38;;
16820;SDS011;8527;49.740;6.604;2023-06-14T11:26:03;13.93;;;6.15;;
16820;SDS011;8527;49.740;6.604;2023-06-14T11:31:03;12.63;;;6.10;;
16820;SDS011;8527;49.740;6.604;2023-06-14T11:36:05;10.32;;;5.38;;
16820;SDS011;8527;49.740;6.604;2023-06-14T11:41:06;10.25;;;5.70;;
16820;SDS011;8527;49.740;6.604;2023-06-14T11:46:11;11.48;;;5.60;;
16820;SDS011;8527;49.740;6.604;2023-06-14T11:51:14;12.57;;;6.03;;
16820;SDS011;8527;49.740;6.604;2023-06-14T11:56:13;20.48;;;5.60;;
16820;SDS011;8527;49.740;6.604;2023-06-14T12:01:14;11.82;;;5.68;;
16820;SDS011;8527;49.740;6.604;2023-06-14T12:06:25;9.85;;;5.50;;
16820;SDS011;8527;49.740;6.604;2023-06-14T12:11:35;9.45;;;5.35;;
16820;SDS011;8527;49.740;6.604;2023-06-14T12:16:34;13.77;;;5.78;;
16820;SDS011;8527;49.740;6.604;2023-06-14T12:21:40;10.93;;;5.35;;
16820;SDS011;8527;49.740;6.604;2023-06-14T12:26:45;15.82;;;6.00;;
16820;SDS011;8527;49.740;6.604;2023-06-14T12:31:43;12.32;;;5.70;;
16820;SDS011;8527;49.740;6.604;2023-06-14T12:36:45;11.25;;;5.22;;
16820;SDS011;8527;49.740;6.604;2023-06-14T12:41:43;12.30;;;5.18;;
16820;SDS011;8527;49.740;6.604;2023-06-14T12:46:42;16.35;;;5.28;;
16820;SDS011;8527;49.740;6.604;2023-06-14T12:51:45;10.95;;;4.88;;
16820;SDS011;8527;49.740;6.604;2023-06-14T12:56:45;10.20;;;5.05;;
16820;SDS011;8527;49.740;6.604;2023-06-14T13:01:43;8.32;;;5.13;;
16820;SDS011;8527;49.740;6.604;2023-06-14T13:06:48;9.88;;;4.80;;
16820;SDS011;8527;49.740;6.604;2023-06-14T13:11:47;9.75;;;4.97;;
16820;SDS011;8527;49.740;6.604;2023-06-14T13:16:45;12.63;;;5.20;;
16820;SDS011;8527;49.740;6.604;2023-06-14T13:21:50;16.38;;;4.68;;
16820;SDS011;8527;49.740;6.604;2023-06-14T13:26:51;13.75;;;5.00;;
16820;SDS011;8527;49.740;6.604;2023-06-14T13:31:50;7.05;;;4.20;;
16820;SDS011;8527;49.740;6.604;2023-06-14T13:36:54;9.18;;;4.32;;
16820;SDS011;8527;49.740;6.604;2023-06-14T13:41:54;10.70;;;4.13;;
16820;SDS011;8527;49.740;6.604;2023-06-14T13:46:55;9.82;;;4.75;;
16820;SDS011;8527;49.740;6.604;2023-06-14T13:51:56;8.00;;;4.45;;
16820;SDS011;8527;49.740;6.604;2023-06-14T13:56:55;9.27;;;4.40;;
16820;SDS011;8527;49.740;6.604;2023-06-14T14:01:53;6.35;;;4.15;;
16820;SDS011;8527;49.740;6.604;2023-06-14T14:06:52;8.63;;;4.10;;
16820;SDS011;8527;49.740;6.604;2023-06-14T14:11:53;9.88;;;4.55;;
16820;SDS011;8527;49.740;6.604;2023-06-14T14:17:03;8.02;;;4.15;;
16820;SDS011;8527;49.740;6.604;2023-06-14T14:22:05;7.50;;;4.15;;
16820;SDS011;8527;49.740;6.604;2023-06-14T14:27:09;6.80;;;3.90;;
16820;SDS011;8527;49.740;6.604;2023-06-14T14:32:08;10.32;;;4.00;;
16820;SDS011;8527;49.740;6.604;2023-06-14T14:37:09;8.30;;;3.90;;
16820;SDS011;8527;49.740;6.604;2023-06-14T14:42:12;9.57;;;4.10;;
16820;SDS011;8527;49.740;6.604;2023-06-14T14:47:11;15.15;;;4.38;;
16820;SDS011;8527;49.740;6.604;2023-06-14T14:52:10;7.40;;;4.28;;
16820;SDS011;8527;49.740;6.604;2023-06-14T14:57:11;18.30;;;4.68;;
16820;SDS011;8527;49.740;6.604;2023-06-14T15:02:12;10.65;;;4.43;;
16820;SDS011;8527;49.740;6.604;2023-06-14T15:07:10;7.65;;;3.80;;
16820;SDS011;8527;49.740;6.604;2023-06-14T15:12:12;8.60;;;3.75;;
16820;SDS011;8527;49.740;6.604;2023-06-14T15:17:15;7.05;;;3.80;;
16820;SDS011;8527;49.740;6.604;2023-06-14T15:22:19;8.45;;;3.92;;
16820;SDS011;8527;49.740;6.604;2023-06-14T15:27:20;7.30;;;3.45;;
16820;SDS011;8527;49.740;6.604;2023-06-14T15:32:19;10.82;;;4.13;;
16820;SDS011;8527;49.740;6.604;2023-06-14T15:37:19;6.82;;;3.90;;
16820;SDS011;8527;49.740;6.604;2023-06-14T15:42:20;13.00;;;3.85;;
16820;SDS011;8527;49.740;6.604;2023-06-14T15:47:32;7.40;;;3.70;;
16820;SDS011;8527;49.740;6.604;2023-06-14T15:52:52;9.20;;;3.95;;
16820;SDS011;8527;49.740;6.604;2023-06-14T15:57:53;8.93;;;3.70;;
16820;SDS011;8527;49.740;6.604;2023-06-14T16:02:51;5.55;;;3.65;;
16820;SDS011;8527;49.740;6.604;2023-06-14T16:07:50;9.07;;;3.67;;
16820;SDS011;8527;49.740;6.604;2023-06-14T16:12:54;5.82;;;3.47;;
16820;SDS011;8527;49.740;6.604;2023-06-14T16:17:52;6.53;;;3.22;;
16820;SDS011;8527;49.740;6.604;2023-06-14T16:22:51;5.50;;;3.72;;
16820;SDS011;8527;49.740;6.604;2023-06-14T16:27:50;6.50;;;3.35;;
16820;SDS011;8527;49.740;6.604;2023-06-14T16:32:51;6.90;;;3.70;;
16820;SDS011;8527;49.740;6.604;2023-06-14T16:37:49;5.75;;;3.58;;
16820;SDS011;8527;49.740;6.604;2023-06-14T16:42:48;7.72;;;3.80;;
16820;SDS011;8527;49.740;6.604;2023-06-14T16:47:47;7.80;;;3.70;;
16820;SDS011;8527;49.740;6.604;2023-06-14T16:52:51;7.47;;;3.80;;
16820;SDS011;8527;49.740;6.604;2023-06-14T16:57:59;9.25;;;3.65;;
16820;SDS011;8527;49.740;6.604;2023-06-14T17:03:03;12.25;;;3.80;;
16820;SDS011;8527;49.740;6.604;2023-06-14T17:08:05;7.50;;;3.80;;
16820;SDS011;8527;49.740;6.604;2023-06-14T17:13:04;9.70;;;4.20;;
16820;SDS011;8527;49.740;6.604;2023-06-14T17:18:02;11.45;;;4.25;;
16820;SDS011;8527;49.740;6.604;2023-06-14T17:23:06;5.60;;;4.10;;
16820;SDS011;8527;49.740;6.604;2023-06-14T17:28:05;9.75;;;4.53;;
16820;SDS011;8527;49.740;6.604;2023-06-14T17:33:07;6.00;;;4.20;;
16820;SDS011;8527;49.740;6.604;2023-06-14T17:38:11;8.55;;;4.20;;
16820;SDS011;8527;49.740;6.604;2023-06-14T17:43:10;8.55;;;4.30;;
16820;SDS011;8527;49.740;6.604;2023-06-14T17:48:14;6.53;;;4.25;;
16820;SDS011;8527;49.740;6.604;2023-06-14T17:53:15;8.02;;;4.22;;
16820;SDS011;8527;49.740;6.604;2023-06-14T17:58:14;8.02;;;4.20;;
16820;SDS011;8527;49.740;6.604;2023-06-14T18:03:14;6.85;;;4.60;;
16820;SDS011;8527;49.740;6.604;2023-06-14T18:08:16;6.50;;;4.43;;
16820;SDS011;8527;49.740;6.604;2023-06-14T18:13:14;11.15;;;4.45;;
16820;SDS011;8527;49.740;6.604;2023-06-14T18:18:19;13.45;;;4.30;;
16820;SDS011;8527;49.740;6.604;2023-06-14T18:23:24;5.93;;;4.30;;
16820;SDS011;8527;49.740;6.604;2023-06-14T18:28:22;8.18;;;4.40;;
16820;SDS011;8527;49.740;6.604;2023-06-14T18:33:23;12.13;;;4.50;;
16820;SDS011;8527;49.740;6.604;2023-06-14T18:38:27;7.75;;;4.22;;
16820;SDS011;8527;49.740;6.604;2023-06-14T18:43:25;9.48;;;4.25;;
16820;SDS011;8527;49.740;6.604;2023-06-14T18:48:26;5.95;;;4.03;;
16820;SDS011;8527;49.740;6.604;2023-06-14T18:53:27;7.05;;;4.20;;
16820;SDS011;8527;49.740;6.604;2023-06-14T18:58:26;7.82;;;4.40;;
16820;SDS011;8527;49.740;6.604;2023-06-14T19:03:24;8.07;;;4.32;;
16820;SDS011;8527;49.740;6.604;2023-06-14T19:08:23;7.05;;;4.07;;
16820;SDS011;8527;49.740;6.604;2023-06-14T19:13:24;4.78;;;3.95;;
16820;SDS011;8527;49.740;6.604;2023-06-14T19:18:23;9.25;;;4.32;;
16820;SDS011;8527;49.740;6.604;2023-06-14T19:23:22;6.72;;;4.13;;
16820;SDS011;8527;49.740;6.604;2023-06-14T19:28:24;13.93;;;4.78;;
16820;SDS011;8527;49.740;6.604;2023-06-14T19:33:22;9.13;;;5.13;;
16820;SDS011;8527;49.740;6.604;2023-06-14T19:38:21;5.55;;;4.28;;
16820;SDS011;8527;49.740;6.604;2023-06-14T19:43:20;7.53;;;4.10;;
16820;SDS011;8527;49.740;6.604;2023-06-14T19:48:24;5.78;;;4.00;;
16820;SDS011;8527;49.740;6.604;2023-06-14T19:53:23;8.40;;;4.85;;
16820;SDS011;8527;49.740;6.604;2023-06-14T19:58:23;7.50;;;4.40;;
16820;SDS011;8527;49.740;6.604;2023-06-14T20:03:27;9.20;;;4.50;;
16820;SDS011;8527;49.740;6.604;2023-06-14T20:08:26;7.13;;;4.22;;
16820;SDS011;8527;49.740;6.604;2023-06-14T20:13:28;7.53;;;4.30;;
16820;SDS011;8527;49.740;6.604;2023-06-14T20:18:29;12.13;;;4.28;;
16820;SDS011;8527;49.740;6.604;2023-06-14T20:23:27;7.97;;;4.30;;
16820;SDS011;8527;49.740;6.604;2023-06-14T20:28:26;8.80;;;4.28;;
16820;SDS011;8527;49.740;6.604;2023-06-14T20:33:31;10.52;;;4.10;;
16820;SDS011;8527;49.740;6.604;2023-06-14T20:38:34;6.93;;;4.05;;
16820;SDS011;8527;49.740;6.604;2023-06-14T20:43:34;8.18;;;4.40;;
16820;SDS011;8527;49.740;6.604;2023-06-14T20:48:36;9.38;;;4.40;;
16820;SDS011;8527;49.740;6.604;2023-06-14T20:53:35;8.23;;;4.63;;
16820;SDS011;8527;49.740;6.604;2023-06-14T20:58:33;12.07;;;4.43;;
16820;SDS011;8527;49.740;6.604;2023-06-14T21:03:37;6.25;;;4.10;;
16820;SDS011;8527;49.740;6.604;2023-06-14T21:08:35;9.90;;;4.50;;
16820;SDS011;8527;49.740;6.604;2023-06-14T21:13:37;6.65;;;4.30;;
16820;SDS011;8527;49.740;6.604;2023-06-14T21:18:38;7.13;;;4.50;;
16820;SDS011;8527;49.740;6.604;2023-06-14T21:23:37;9.05;;;4.25;;
16820;SDS011;8527;49.740;6.604;2023-06-14T21:28:41;8.40;;;4.90;;
16820;SDS011;8527;49.740;6.604;2023-06-14T21:33:43;4.75;;;4.00;;
16820;SDS011;8527;49.740;6.604;2023-06-14T21:38:44;9.18;;;4.53;;
16820;SDS011;8527;49.740;6.604;2023-06-14T21:43:43;7.75;;;4.60;;
16820;SDS011;8527;49.740;6.604;2023-06-14T21:48:44;7.07;;;4.60;;
16820;SDS011;8527;49.740;6.604;2023-06-14T21:53:43;10.07;;;4.60;;
16820;SDS011;8527;49.740;6.604;2023-06-14T21:58:44;10.20;;;4.93;;
16820;SDS011;8527;49.740;6.604;2023-06-14T22:03:48;6.18;;;4.30;;
16820;SDS011;8527;49.740;6.604;2023-06-14T22:08:49;9.60;;;4.78;;
16820;SDS011;8527;49.740;6.604;2023-06-14T22:13:48;13.30;;;4.85;;
16820;SDS011;8527;49.740;6.604;2023-06-14T22:18:50;8.80;;;4.50;;
16820;SDS011;8527;49.740;6.604;2023-06-14T22:23:51;7.05;;;4.45;;
16820;SDS011;8527;49.740;6.604;2023-06-14T22:28:50;9.75;;;4.47;;
16820;SDS011;8527;49.740;6.604;2023-06-14T22:33:51;6.68;;;4.38;;
16820;SDS011;8527;49.740;6.604;2023-06-14T22:38:50;6.88;;;4.18;;
16820;SDS011;8527;49.740;6.604;2023-06-14T22:43:49;8.70;;;4.38;;
16820;SDS011;8527;49.740;6.604;2023-06-14T22:48:47;8.20;;;4.80;;
16820;SDS011;8527;49.740;6.604;2023-06-14T22:53:49;6.70;;;4.40;;
16820;SDS011;8527;49.740;6.604;2023-06-14T22:58:50;9.70;;;4.68;;
16820;SDS011;8527;49.740;6.604;2023-06-14T23:03:57;8.85;;;5.07;;
16820;SDS011;8527;49.740;6.604;2023-06-14T23:09:09;7.00;;;4.40;;
16820;SDS011;8527;49.740;6.604;2023-06-14T23:14:07;7.97;;;5.03;;
16820;SDS011;8527;49.740;6.604;2023-06-14T23:19:06;7.53;;;4.60;;
16820;SDS011;8527;49.740;6.604;2023-06-14T23:24:10;8.02;;;4.72;;
16820;SDS011;8527;49.740;6.604;2023-06-14T23:29:10;6.97;;;4.80;;
16820;SDS011;8527;49.740;6.604;2023-06-14T23:34:14;7.05;;;4.72;;
16820;SDS011;8527;49.740;6.604;2023-06-14T23:39:15;8.95;;;4.90;;
16820;SDS011;8527;49.740;6.604;2023-06-14T23:44:20;5.80;;;4.32;;
16820;SDS011;8527;49.740;6.604;2023-06-14T23:49:31;7.07;;;4.80;;
16820;SDS011;8527;49.740;6.604;2023-06-14T23:54:32;11.43;;;4.80;;
16820;SDS011;8527;49.740;6.604;2023-06-14T23:59:31;8.27;;;5.15;;
